AWM weather

West Memphis Municipal Airport
West Memphis, Arkansas, United States

Public forecast

Using degrees Fahrenheit for public forecast. Weather courtesy of forecast.io.

Current aviation weather report (METAR) for West Memphis Municipal Airport

Retrieved 2019/10/16 04:53 UTC (47 minutes ago):

KAWM 160453Z AUTO 22005KT 4SM BR OVC003 20/20 A2986 RMK AO2 RAB0359E52 SLP108 P0001 T02000200

Closest aviation forecast (TAF) to West Memphis Municipal Airport

Closest forecast is Memphis International Airport, 13.8 nm (25.6 km) ESE. Retrieved 2019-10-16 04:00 UTC (2 hours ago):

TAF COR KMEM 160359Z 1604/1706 21006KT P6SM VCSH SCT006 OVC011 TEMPO 1604/1605 BKN006 FM160500 35012G20KT P6SM VCSH BKN025 BKN050 FM161200 36012KT P6SM SKC FM162100 33007KT P6SM SKC